createdAt,value
2023-05-05T04:55:53.954Z,80.59
2023-05-05T09:14:31.686Z,71.21
2023-05-05T09:16:47.168Z,71.68
2023-05-05T09:17:48.729Z,72.09
2023-05-05T09:18:50.255Z,71.60
2023-05-05T09:20:11.592Z,71.56
2023-05-05T09:21:24.646Z,71.16
2023-05-05T09:22:50.833Z,72.36
2023-05-05T09:25:26.199Z,72.67
2023-05-05T09:28:17.177Z,72.86
2023-05-05T10:43:03.849Z,75.33
2023-05-05T10:44:06.919Z,74.74
2023-05-05T10:45:09.264Z,74.38
2023-05-05T10:46:11.350Z,74.20
2023-05-05T10:47:13.223Z,74.58
2023-05-05T10:48:21.270Z,74.99
2023-05-05T10:49:40.710Z,74.52
2023-05-05T10:50:52.057Z,74.52
2023-05-05T10:52:11.826Z,74.20
2023-05-05T10:53:19.157Z,73.94
2023-05-05T10:54:30.285Z,74.28
2023-05-05T10:55:44.280Z,74.05
2023-05-05T10:56:47.007Z,73.06
2023-05-05T10:57:53.958Z,72.67
2023-05-05T10:59:00.196Z,71.69
2023-05-05T11:00:02.155Z,70.79
2023-05-05T11:01:04.705Z,71.11
2023-05-05T11:02:26.488Z,71.36
2023-05-05T11:03:28.261Z,69.71
2023-05-05T11:04:30.779Z,67.92
2023-05-05T11:05:32.383Z,67.45
2023-05-05T11:06:33.809Z,66.45
2023-05-05T11:07:36.383Z,66.19
2023-05-05T11:08:38.221Z,65.01
2023-05-05T11:09:55.631Z,65.20
2023-05-05T11:10:57.222Z,65.02
2023-05-05T11:12:03.572Z,62.92
2023-05-05T11:13:05.163Z,62.16
2023-05-05T11:14:24.426Z,62.60
2023-05-05T11:15:31.720Z,62.48
2023-05-05T11:16:51.224Z,61.99
2023-05-05T11:17:53.995Z,60.54
2023-05-05T11:18:55.796Z,60.82
2023-05-05T11:19:57.230Z,59.95
2023-05-05T11:20:58.538Z,60.05
2023-05-05T11:22:01.759Z,59.01
2023-05-05T11:23:03.352Z,60.20
2023-05-05T11:24:29.509Z,59.03
2023-05-05T11:25:41.065Z,60.99
2023-05-05T11:26:53.461Z,59.76
2023-05-05T11:28:14.556Z,59.02
2023-05-05T11:29:16.067Z,58.56
2023-05-05T11:30:17.966Z,58.43
2023-05-05T11:31:19.934Z,59.44
2023-05-05T11:32:21.525Z,58.03
2023-05-05T11:33:33.550Z,57.44
2023-05-05T11:34:34.907Z,57.69
2023-05-05T11:36:12.368Z,56.40
2023-05-05T11:37:15.435Z,54.33
2023-05-05T11:38:18.937Z,55.49
2023-05-05T11:39:23.781Z,56.54
2023-05-05T11:40:32.529Z,56.24
2023-05-05T11:41:41.749Z,56.01
2023-05-05T11:42:43.232Z,56.01
2023-05-05T11:43:44.932Z,55.73
2023-05-05T11:44:46.422Z,56.08
2023-05-05T11:45:47.817Z,56.57
2023-05-05T11:46:55.342Z,57.56
2023-05-05T11:48:28.899Z,56.33
2023-05-05T11:49:35.101Z,57.94
2023-05-05T11:50:36.704Z,58.83
2023-05-05T11:51:38.295Z,58.96
2023-05-05T11:52:39.653Z,58.74
2023-05-05T11:53:46.326Z,57.83
2023-05-05T11:54:48.936Z,58.54
2023-05-05T11:56:06.437Z,57.72
2023-05-05T11:57:08.949Z,57.93
2023-05-05T11:58:20.962Z,57.93
2023-05-05T11:59:23.251Z,57.94
2023-05-05T12:00:33.975Z,56.73
2023-05-05T12:01:39.863Z,57.01
2023-05-05T12:02:41.345Z,56.98
2023-05-05T12:03:45.293Z,57.31
2023-05-05T12:04:47.481Z,55.95
2023-05-05T12:05:48.980Z,54.85
2023-05-05T12:06:50.578Z,54.46
2023-05-05T12:07:57.569Z,54.42
2023-05-05T12:08:59.608Z,55.02
2023-05-05T12:10:01.264Z,54.89
2023-05-05T12:11:07.587Z,55.46
2023-05-05T12:12:09.077Z,55.34
2023-05-05T12:13:20.457Z,56.02
2023-05-05T12:14:22.694Z,54.25
2023-05-05T12:15:33.400Z,53.71
2023-05-05T12:16:35.048Z,53.70
2023-05-05T12:17:38.969Z,55.32
2023-05-05T12:18:41.066Z,54.40
2023-05-05T12:19:53.178Z,54.09
2023-05-05T12:20:54.611Z,53.52
2023-05-05T12:21:56.546Z,53.57
2023-05-05T12:23:04.216Z,53.40
2023-05-05T12:24:06.542Z,53.36
2023-05-05T12:25:08.677Z,53.17
2023-05-05T12:26:26.629Z,54.14
2023-05-05T12:27:28.664Z,53.46
2023-05-05T12:28:44.209Z,52.83
2023-05-05T12:29:45.712Z,52.25
2023-05-05T12:30:57.773Z,52.03
2023-05-05T12:32:00.248Z,52.80
2023-05-05T12:33:06.305Z,50.83
2023-05-05T12:34:11.522Z,51.09
2023-05-05T12:35:13.720Z,49.72
2023-05-05T12:36:15.468Z,51.55
2023-05-05T12:37:19.093Z,51.06
2023-05-05T12:38:20.648Z,51.65
2023-05-05T12:39:22.378Z,50.62
2023-05-05T12:40:47.649Z,50.93
2023-05-05T12:41:49.729Z,51.29
2023-05-05T12:42:53.772Z,51.26
2023-05-05T12:43:57.040Z,51.49
2023-05-05T12:44:58.507Z,52.73
2023-05-05T12:46:01.719Z,51.55
2023-05-05T12:47:03.609Z,51.86
2023-05-05T12:48:23.093Z,52.61
2023-05-05T12:49:24.592Z,51.90
2023-05-05T12:50:32.451Z,51.58
2023-05-05T12:51:35.952Z,51.03
2023-05-05T12:52:44.904Z,49.72
2023-05-05T12:53:47.977Z,49.22
2023-05-05T12:54:56.924Z,49.87
2023-05-05T12:55:58.268Z,49.91
2023-05-05T12:57:11.167Z,48.41
2023-05-05T12:58:12.624Z,49.86
2023-05-05T12:59:22.914Z,50.39
2023-05-05T13:00:25.061Z,50.33
2023-05-05T13:01:27.329Z,50.28
2023-05-05T13:02:35.230Z,48.92
2023-05-05T13:03:36.782Z,48.55
2023-05-05T13:04:50.248Z,48.70
2023-05-05T13:05:52.176Z,49.64
2023-05-05T13:07:14.369Z,50.46
2023-05-05T13:08:15.870Z,49.52
2023-05-05T13:09:27.798Z,49.81
2023-05-05T13:10:31.092Z,49.38
2023-05-05T13:11:39.399Z,51.54
2023-05-05T13:12:41.284Z,50.39
2023-05-05T13:13:42.738Z,50.52
2023-05-05T13:14:45.121Z,50.90
2023-05-05T13:15:46.600Z,51.23
2023-05-05T13:16:48.057Z,50.60
2023-05-05T13:17:49.679Z,50.87
2023-05-05T13:18:51.273Z,51.73
2023-05-05T13:19:52.771Z,52.81
2023-05-05T13:20:54.344Z,52.51
2023-05-05T13:21:56.915Z,52.92
2023-05-05T13:22:58.259Z,53.00
2023-05-05T13:24:12.406Z,53.31
2023-05-05T13:25:21.064Z,53.72
2023-05-05T13:26:22.490Z,54.34
2023-05-05T13:27:24.019Z,53.95
2023-05-05T13:28:25.532Z,53.43
2023-05-05T13:29:30.469Z,53.56
2023-05-05T13:30:33.017Z,54.68
2023-05-05T13:31:34.490Z,53.80
2023-05-05T13:32:36.874Z,52.94
2023-05-05T13:33:38.460Z,53.63
2023-05-05T13:34:39.902Z,54.47
2023-05-05T13:35:41.274Z,55.84
2023-05-05T13:36:42.779Z,56.72
2023-05-05T13:37:45.939Z,58.11
2023-05-05T13:38:47.351Z,59.35
2023-05-05T13:39:48.712Z,59.76
2023-05-05T13:40:50.109Z,59.85
2023-05-05T13:41:51.510Z,60.03
2023-05-05T13:42:53.995Z,59.65
2023-05-05T13:43:57.033Z,60.06
2023-05-05T13:44:58.519Z,61.17
2023-05-05T13:46:12.263Z,60.97
2023-05-05T13:47:21.198Z,60.69
2023-05-05T13:48:22.654Z,61.42
2023-05-05T13:49:24.051Z,61.96
2023-05-05T13:50:25.663Z,61.82
2023-05-05T13:51:27.752Z,61.89
2023-05-05T13:52:31.587Z,62.84
2023-05-05T13:53:39.781Z,62.83
2023-05-05T13:54:41.871Z,62.63
2023-05-05T13:55:43.335Z,62.61
2023-05-05T13:56:44.893Z,62.73
2023-05-05T13:57:46.323Z,62.95
2023-05-05T13:58:47.714Z,63.30
2023-05-05T13:59:49.107Z,63.25
2023-05-05T14:00:50.611Z,63.35
2023-05-05T14:01:52.349Z,63.85
2023-05-05T14:07:55.908Z,64.27
2023-05-05T14:10:40.482Z,64.60
2023-05-05T14:11:42.274Z,64.37
2023-05-05T14:12:44.371Z,64.03
2023-05-05T14:13:46.456Z,63.83
2023-05-05T14:14:48.018Z,63.93
2023-05-05T14:15:50.610Z,63.52
2023-05-05T14:16:52.226Z,63.49
2023-05-05T14:17:53.676Z,64.46
2023-05-05T14:18:55.219Z,64.10
2023-05-05T14:19:56.777Z,64.23
2023-05-05T14:20:58.183Z,64.83
2023-05-05T14:21:59.560Z,64.19
2023-05-05T14:23:01.043Z,64.29
2023-05-05T14:24:02.419Z,63.68
2023-05-05T14:28:48.977Z,64.17
2023-05-05T14:32:46.236Z,64.32
2023-05-05T14:35:59.969Z,65.83
2023-05-05T14:37:01.485Z,66.14
2023-05-05T14:38:02.862Z,66.94
2023-05-05T14:41:37.366Z,69.17
2023-05-05T14:44:59.357Z,71.04
2023-05-05T14:48:18.013Z,70.79
2023-05-05T16:49:33.554Z,95.38
2023-05-05T16:52:04.383Z,94.32
2023-05-05T16:54:43.570Z,93.21
2023-05-05T17:01:20.804Z,92.26
